GMFF/FEZ METAR and TAF weather

Enter ICAO airport designator
Station Type Date Time Source
GMFF METAR 2018/12/11 01:00 UTC NOAA

GMFF 110100Z 19007KT CAVOK 08/04 Q1025 NOSIG


Station Type Date Time Source
GMFF Decoded METAR 2018/12/11 01:00 UTC NOAA

Fes-Sais, Morocco (GMFF) 33-56N 004-59W 579M
Dec 10, 2018 - 08:00 PM EST / 2018.12.11 0100 UTC
Wind: from the S (190 degrees) at 8 MPH (7 KT):0
Visibility: greater than 7 mile(s):0
Temperature: 46 F (8 C)
Dew Point: 39 F (4 C)
Relative Humidity: 75%
Pressure (altimeter): 30.27 in. Hg (1025 hPa)
ob: GMFF 110100Z 19007KT CAVOK 08/04 Q1025 NOSIG
cycle: 1

Station Type Date Time Source
GMFF TAF 2018/12/10 18:51 UTC NOAA

TAF TAF GMFF 101700Z 1018/1124 18004KT CAVOK PROB40
TEMPO 1105/1110 3000 BR BKN008
BECMG 1111/1114 SCT030 BKN200


Example: see airport list